Climatologie pour Saint-Brevin les Pins
Jour • Résumé pour novembre 11, 2017 Système :  Mixte    Anglais   Métrique
« - 1 jour
+ 1 jour »
Jour Semaine Mois Année Personnalisé
  Maximum : Minimum : Moyenne :
Température sous abri : 59 °F /  15.0 °C 51.4 °F /  10.8 °C 55.9 °F /  13.3 °C
Point de rosée : 55.9 °F /  13.3 °C 49.3 °F /  9.6 °C 53.4 °F /  11.9 °C
Humidité : 94 % 88 % 91 %
Vitesse du vent : 25 mph /  40.2 km/h - 7.7 mph /  12.4 km/h
Rafale : 29 mph /  46.7 km/h - -
Direction :- - WNW
Pression : 30.3 in /  1027.0 hPa 30.1 in /  1018.8 hPa -
Précipitations : 0 in /  0.0 mm    
Historical Graphs
 
 
Tableau de données pour novembre 11, 2017
Heure Tempé Pt rosée Pression Vent Vitesse Rafale Humidité Taux pluie (/hr) Soleil
00:00 52.3 °F /  11.3 °C 49.8 °F /  9.9 °C 30.3 in /  1027.0 hPa NW 3 mph /  4.8 km/h 12 mph /  19.3 km/h 91 % 0 in /  0.0 mm 0 W/m2
00:10 52.3 °F /  11.3 °C 49.8 °F /  9.9 °C 30.3 in /  1027.0 hPa West 4 mph /  6.4 km/h 9 mph /  14.5 km/h 91 % 0 in /  0.0 mm 0 W/m2
00:15 52.3 °F /  11.3 °C 49.8 °F /  9.9 °C 30.3 in /  1027.0 hPa WNW 1 mph /  1.6 km/h 10 mph /  16.1 km/h 91 % 0 in /  0.0 mm 0 W/m2
00:20 52.3 °F /  11.3 °C 49.8 °F /  9.9 °C 30.3 in /  1027.0 hPa WNW 3 mph /  4.8 km/h 10 mph /  16.1 km/h 91 % 0 in /  0.0 mm 0 W/m2
00:25 52.5 °F /  11.4 °C 50 °F /  10.0 °C 30.3 in /  1027.0 hPa WNW 1 mph /  1.6 km/h 11 mph /  17.7 km/h 91 % 0 in /  0.0 mm 0 W/m2
00:30 52.3 °F /  11.3 °C 49.8 °F /  9.9 °C 30.3 in /  1027.0 hPa NW 4 mph /  6.4 km/h 11 mph /  17.7 km/h 91 % 0 in /  0.0 mm 0 W/m2
00:35 52.3 °F /  11.3 °C 49.5 °F /  9.7 °C 30.3 in /  1027.0 hPa NW 3 mph /  4.8 km/h 9 mph /  14.5 km/h 90 % 0 in /  0.0 mm 0 W/m2
00:40 52.3 °F /  11.3 °C 49.8 °F /  9.9 °C 30.3 in /  1026.6 hPa West 3 mph /  4.8 km/h 9 mph /  14.5 km/h 91 % 0 in /  0.0 mm 0 W/m2
00:45 52.3 °F /  11.3 °C 49.8 °F /  9.9 °C 30.3 in /  1026.6 hPa NW 6 mph /  9.7 km/h 8 mph /  12.9 km/h 91 % 0 in /  0.0 mm 0 W/m2
00:50 52.3 °F /  11.3 °C 49.8 °F /  9.9 °C 30.3 in /  1026.6 hPa West 7 mph /  11.3 km/h 8 mph /  12.9 km/h 91 % 0 in /  0.0 mm 0 W/m2
00:55 52.3 °F /  11.3 °C 49.8 °F /  9.9 °C 30.3 in /  1027.0 hPa WNW 5 mph /  8.0 km/h 8 mph /  12.9 km/h 91 % 0 in /  0.0 mm 0 W/m2
01:00 52.3 °F /  11.3 °C 49.6 °F /  9.8 °C 30.3 in /  1027.0 hPa WNW 2 mph /  3.2 km/h 8 mph /  12.9 km/h 90 % 0 in /  0.0 mm 0 W/m2
01:05 52.3 °F /  11.3 °C 49.8 °F /  9.9 °C 30.3 in /  1027.0 hPa WNW 1 mph /  1.6 km/h 8 mph /  12.9 km/h 91 % 0 in /  0.0 mm 0 W/m2
01:10 52.3 °F /  11.3 °C 49.8 °F /  9.9 °C 30.3 in /  1026.6 hPa WNW 6 mph /  9.7 km/h 8 mph /  12.9 km/h 91 % 0 in /  0.0 mm 0 W/m2
01:15 52.3 °F /  11.3 °C 49.8 °F /  9.9 °C 30.3 in /  1026.6 hPa West 2 mph /  3.2 km/h 6 mph /  9.7 km/h 91 % 0 in /  0.0 mm 0 W/m2
01:20 52.2 °F /  11.2 °C 49.6 °F /  9.8 °C 30.3 in /  1026.6 hPa West 1 mph /  1.6 km/h 6 mph /  9.7 km/h 91 % 0 in /  0.0 mm 0 W/m2
01:25 52 °F /  11.1 °C 49.3 °F /  9.6 °C 30.3 in /  1026.3 hPa Calm   5 mph /  8.0 km/h 91 % 0 in /  0.0 mm 0 W/m2
01:30 51.8 °F /  11.0 °C 49.5 °F /  9.7 °C 30.3 in /  1026.3 hPa WNW 3 mph /  4.8 km/h 5 mph /  8.0 km/h 92 % 0 in /  0.0 mm 0 W/m2
01:35 51.6 °F /  10.9 °C 49.5 °F /  9.7 °C 30.3 in /  1026.3 hPa WNW 2 mph /  3.2 km/h 5 mph /  8.0 km/h 92 % 0 in /  0.0 mm 0 W/m2
01:40 51.4 °F /  10.8 °C 49.3 °F /  9.6 °C 30.3 in /  1026.3 hPa West 3 mph /  4.8 km/h 5 mph /  8.0 km/h 92 % 0 in /  0.0 mm 0 W/m2
01:45 51.4 °F /  10.8 °C 49.5 °F /  9.7 °C 30.3 in /  1026.3 hPa WNW 1 mph /  1.6 km/h 5 mph /  8.0 km/h 93 % 0 in /  0.0 mm 0 W/m2
01:55 51.8 °F /  11.0 °C 49.8 °F /  9.9 °C 30.3 in /  1026.0 hPa West 3 mph /  4.8 km/h 4 mph /  6.4 km/h 93 % 0 in /  0.0 mm 0 W/m2
02:00 52.2 °F /  11.2 °C 50.5 °F /  10.3 °C 30.3 in /  1026.0 hPa WSW 4 mph /  6.4 km/h 8 mph /  12.9 km/h 94 % 0 in /  0.0 mm 0 W/m2
02:05 52.5 °F /  11.4 °C 50.5 °F /  10.3 °C 30.3 in /  1026.0 hPa NW 2 mph /  3.2 km/h 8 mph /  12.9 km/h 93 % 0 in /  0.0 mm 0 W/m2
02:10 52.5 °F /  11.4 °C 50.7 °F /  10.4 °C 30.3 in /  1026.0 hPa West 3 mph /  4.8 km/h 5 mph /  8.0 km/h 93 % 0 in /  0.0 mm 0 W/m2
02:15 53.1 °F /  11.7 °C 51.1 °F /  10.6 °C 30.3 in /  1026.0 hPa NW 6 mph /  9.7 km/h 7 mph /  11.3 km/h 93 % 0 in /  0.0 mm 0 W/m2
02:20 53.4 °F /  11.9 °C 51.4 °F /  10.8 °C 30.3 in /  1025.6 hPa NW 5 mph /  8.0 km/h 8 mph /  12.9 km/h 93 % 0 in /  0.0 mm 0 W/m2
02:25 53.8 °F /  12.1 °C 51.8 °F /  11.0 °C 30.3 in /  1025.6 hPa NW 2 mph /  3.2 km/h 8 mph /  12.9 km/h 93 % 0 in /  0.0 mm 0 W/m2
02:30 54.1 °F /  12.3 °C 52.2 °F /  11.2 °C 30.3 in /  1025.3 hPa NW 8 mph /  12.9 km/h 8 mph /  12.9 km/h 93 % 0 in /  0.0 mm 0 W/m2
02:35 54.1 °F /  12.3 °C 52 °F /  11.1 °C 30.3 in /  1025.3 hPa WSW 6 mph /  9.7 km/h 8 mph /  12.9 km/h 92 % 0 in /  0.0 mm 0 W/m2
02:40 54.3 °F /  12.4 °C 52.2 °F /  11.2 °C 30.3 in /  1024.9 hPa NW 6 mph /  9.7 km/h 8 mph /  12.9 km/h 92 % 0 in /  0.0 mm 0 W/m2
02:45 54.7 °F /  12.6 °C 52.3 °F /  11.3 °C 30.3 in /  1024.9 hPa West 6 mph /  9.7 km/h 8 mph /  12.9 km/h 92 % 0 in /  0.0 mm 0 W/m2
02:50 54.9 °F /  12.7 °C 52.5 °F /  11.4 °C 30.3 in /  1024.9 hPa WNW 8 mph /  12.9 km/h 11 mph /  17.7 km/h 92 % 0 in /  0.0 mm 0 W/m2
02:55 55 °F /  12.8 °C 52.7 °F /  11.5 °C 30.3 in /  1024.9 hPa WNW 8 mph /  12.9 km/h 11 mph /  17.7 km/h 92 % 0 in /  0.0 mm 0 W/m2
03:00 55 °F /  12.8 °C 52.9 °F /  11.6 °C 30.3 in /  1024.9 hPa West 5 mph /  8.0 km/h 11 mph /  17.7 km/h 92 % 0 in /  0.0 mm 0 W/m2
03:05 55.2 °F /  12.9 °C 53.1 °F /  11.7 °C 30.3 in /  1024.9 hPa West 5 mph /  8.0 km/h 12 mph /  19.3 km/h 92 % 0 in /  0.0 mm 0 W/m2
03:10 55.4 °F /  13.0 °C 53.1 °F /  11.7 °C 30.3 in /  1024.9 hPa West 9 mph /  14.5 km/h 12 mph /  19.3 km/h 92 % 0 in /  0.0 mm 0 W/m2
03:15 55.6 °F /  13.1 °C 53.2 °F /  11.8 °C 30.3 in /  1024.9 hPa West 8 mph /  12.9 km/h 12 mph /  19.3 km/h 92 % 0 in /  0.0 mm 0 W/m2
03:20 55.6 °F /  13.1 °C 53.2 °F /  11.8 °C 30.3 in /  1024.9 hPa WNW 7 mph /  11.3 km/h 12 mph /  19.3 km/h 92 % 0 in /  0.0 mm 0 W/m2
03:25 55.6 °F /  13.1 °C 53.2 °F /  11.8 °C 30.3 in /  1024.6 hPa West 4 mph /  6.4 km/h 13 mph /  20.9 km/h 92 % 0 in /  0.0 mm 0 W/m2
03:30 55.6 °F /  13.1 °C 53.2 °F /  11.8 °C 30.3 in /  1024.6 hPa West 8 mph /  12.9 km/h 14 mph /  22.5 km/h 92 % 0 in /  0.0 mm 0 W/m2
03:35 55.6 °F /  13.1 °C 53.2 °F /  11.8 °C 30.3 in /  1024.6 hPa WNW 8 mph /  12.9 km/h 15 mph /  24.1 km/h 92 % 0 in /  0.0 mm 0 W/m2
03:40 55.4 °F /  13.0 °C 53.4 °F /  11.9 °C 30.3 in /  1024.6 hPa WSW 6 mph /  9.7 km/h 15 mph /  24.1 km/h 93 % 0 in /  0.0 mm 0 W/m2
03:45 55.2 °F /  12.9 °C 53.2 °F /  11.8 °C 30.3 in /  1024.6 hPa WNW 4 mph /  6.4 km/h 12 mph /  19.3 km/h 93 % 0 in /  0.0 mm 0 W/m2
03:50 55.4 °F /  13.0 °C 53.4 °F /  11.9 °C 30.3 in /  1024.3 hPa West 9 mph /  14.5 km/h 15 mph /  24.1 km/h 93 % 0 in /  0.0 mm 0 W/m2
03:55 55.4 °F /  13.0 °C 53.4 °F /  11.9 °C 30.3 in /  1024.3 hPa WNW 5 mph /  8.0 km/h 15 mph /  24.1 km/h 93 % 0 in /  0.0 mm 0 W/m2
04:00 55.6 °F /  13.1 °C 53.4 °F /  11.9 °C 30.3 in /  1024.3 hPa NW 8 mph /  12.9 km/h 15 mph /  24.1 km/h 93 % 0 in /  0.0 mm 0 W/m2
04:05 55.6 °F /  13.1 °C 53.2 °F /  11.8 °C 30.3 in /  1024.3 hPa WNW 5 mph /  8.0 km/h 17 mph /  27.4 km/h 92 % 0 in /  0.0 mm 0 W/m2
04:10 55.6 °F /  13.1 °C 53.2 °F /  11.8 °C 30.3 in /  1024.3 hPa SW 7 mph /  11.3 km/h 17 mph /  27.4 km/h 92 % 0 in /  0.0 mm 0 W/m2
04:20 55.4 °F /  13.0 °C 53.1 °F /  11.7 °C 30.3 in /  1024.3 hPa WNW 7 mph /  11.3 km/h 18 mph /  29.0 km/h 92 % 0 in /  0.0 mm 0 W/m2
04:25 55.6 °F /  13.1 °C 52.9 °F /  11.6 °C 30.2 in /  1023.9 hPa NW 5 mph /  8.0 km/h 18 mph /  29.0 km/h 91 % 0 in /  0.0 mm 0 W/m2
04:30 55.6 °F /  13.1 °C 52.9 °F /  11.6 °C 30.2 in /  1023.9 hPa WNW 4 mph /  6.4 km/h 13 mph /  20.9 km/h 91 % 0 in /  0.0 mm 0 W/m2
04:40 55.4 °F /  13.0 °C 52.9 °F /  11.6 °C 30.2 in /  1023.9 hPa WNW 2 mph /  3.2 km/h 16 mph /  25.7 km/h 91 % 0 in /  0.0 mm 0 W/m2
04:45 55.6 °F /  13.1 °C 52.9 °F /  11.6 °C 30.2 in /  1023.9 hPa WNW 6 mph /  9.7 km/h 15 mph /  24.1 km/h 91 % 0 in /  0.0 mm 0 W/m2
04:50 55.6 °F /  13.1 °C 52.7 °F /  11.5 °C 30.2 in /  1023.9 hPa WNW 5 mph /  8.0 km/h 17 mph /  27.4 km/h 90 % 0 in /  0.0 mm 0 W/m2
04:55 55.6 °F /  13.1 °C 52.7 °F /  11.5 °C 30.2 in /  1023.9 hPa West 7 mph /  11.3 km/h 19 mph /  30.6 km/h 90 % 0 in /  0.0 mm 0 W/m2
05:00 55.6 °F /  13.1 °C 52.7 °F /  11.5 °C 30.2 in /  1023.9 hPa West 6 mph /  9.7 km/h 19 mph /  30.6 km/h 90 % 0 in /  0.0 mm 0 W/m2
05:05 55.4 °F /  13.0 °C 52.5 °F /  11.4 °C 30.2 in /  1023.9 hPa NW 4 mph /  6.4 km/h 14 mph /  22.5 km/h 90 % 0 in /  0.0 mm 0 W/m2
05:10 55.4 °F /  13.0 °C 52.9 °F /  11.6 °C 30.2 in /  1023.6 hPa NW 7 mph /  11.3 km/h 14 mph /  22.5 km/h 91 % 0 in /  0.0 mm 0 W/m2
05:15 55.4 °F /  13.0 °C 53.1 °F /  11.7 °C 30.2 in /  1023.6 hPa WNW 5 mph /  8.0 km/h 14 mph /  22.5 km/h 92 % 0 in /  0.0 mm 0 W/m2
05:20 55.4 °F /  13.0 °C 53.1 °F /  11.7 °C 30.2 in /  1023.6 hPa NW 8 mph /  12.9 km/h 16 mph /  25.7 km/h 92 % 0 in /  0.0 mm 0 W/m2
05:25 55.6 °F /  13.1 °C 53.2 °F /  11.8 °C 30.2 in /  1023.6 hPa WNW 8 mph /  12.9 km/h 16 mph /  25.7 km/h 92 % 0 in /  0.0 mm 0 W/m2
05:30 55.2 °F /  12.9 °C 52.7 °F /  11.5 °C 30.2 in /  1023.6 hPa NW 14 mph /  22.5 km/h 21 mph /  33.8 km/h 91 % 0 in /  0.0 mm 0 W/m2
05:35 54.9 °F /  12.7 °C 52.3 °F /  11.3 °C 30.2 in /  1023.6 hPa NW 7 mph /  11.3 km/h 21 mph /  33.8 km/h 91 % 0 in /  0.0 mm 0 W/m2
05:45 54.7 °F /  12.6 °C 52.3 °F /  11.3 °C 30.2 in /  1023.6 hPa NW 9 mph /  14.5 km/h 12 mph /  19.3 km/h 92 % 0 in /  0.0 mm 0 W/m2
05:50 54.7 °F /  12.6 °C 52.3 °F /  11.3 °C 30.2 in /  1023.2 hPa West 9 mph /  14.5 km/h 12 mph /  19.3 km/h 92 % 0 in /  0.0 mm 0 W/m2
05:55 54.9 °F /  12.7 °C 52.7 °F /  11.5 °C 30.2 in /  1023.2 hPa WNW 3 mph /  4.8 km/h 13 mph /  20.9 km/h 92 % 0 in /  0.0 mm 0 W/m2
06:00 55 °F /  12.8 °C 52.9 °F /  11.6 °C 30.2 in /  1023.2 hPa WNW 7 mph /  11.3 km/h 15 mph /  24.1 km/h 92 % 0 in /  0.0 mm 0 W/m2
06:05 55 °F /  12.8 °C 52.7 °F /  11.5 °C 30.2 in /  1023.6 hPa NW 7 mph /  11.3 km/h 16 mph /  25.7 km/h 92 % 0 in /  0.0 mm 0 W/m2
06:10 54.3 °F /  12.4 °C 52.3 °F /  11.3 °C 30.2 in /  1023.2 hPa West 8 mph /  12.9 km/h 16 mph /  25.7 km/h 93 % 0 in /  0.0 mm 0 W/m2
06:15 54.1 °F /  12.3 °C 52.2 °F /  11.2 °C 30.2 in /  1023.2 hPa WNW 3 mph /  4.8 km/h 14 mph /  22.5 km/h 93 % 0 in /  0.0 mm 0 W/m2
06:20 54.1 °F /  12.3 °C 52.2 °F /  11.2 °C 30.2 in /  1023.2 hPa West 2 mph /  3.2 km/h 16 mph /  25.7 km/h 93 % 0 in /  0.0 mm 0 W/m2
06:25 54.3 °F /  12.4 °C 52.3 °F /  11.3 °C 30.2 in /  1023.2 hPa WNW 4 mph /  6.4 km/h 16 mph /  25.7 km/h 93 % 0 in /  0.0 mm 0 W/m2
06:30 54.3 °F /  12.4 °C 52.3 °F /  11.3 °C 30.2 in /  1023.2 hPa NW 2 mph /  3.2 km/h 12 mph /  19.3 km/h 93 % 0 in /  0.0 mm 0 W/m2
06:35 54.5 °F /  12.5 °C 52.5 °F /  11.4 °C 30.2 in /  1022.9 hPa West 4 mph /  6.4 km/h 11 mph /  17.7 km/h 93 % 0 in /  0.0 mm 0 W/m2
06:40 54.7 °F /  12.6 °C 52.3 °F /  11.3 °C 30.2 in /  1022.9 hPa West 9 mph /  14.5 km/h 11 mph /  17.7 km/h 92 % 0 in /  0.0 mm 0 W/m2
06:45 54.9 °F /  12.7 °C 52.2 °F /  11.2 °C 30.2 in /  1022.6 hPa WSW 9 mph /  14.5 km/h 14 mph /  22.5 km/h 91 % 0 in /  0.0 mm 0 W/m2
06:50 55.2 °F /  12.9 °C 52.3 °F /  11.3 °C 30.2 in /  1022.9 hPa West 11 mph /  17.7 km/h 14 mph /  22.5 km/h 90 % 0 in /  0.0 mm 0 W/m2
06:55 55.4 °F /  13.0 °C 52.2 °F /  11.2 °C 30.2 in /  1022.6 hPa WNW 2 mph /  3.2 km/h 17 mph /  27.4 km/h 89 % 0 in /  0.0 mm 0 W/m2
07:00 55.6 °F /  13.1 °C 52.3 °F /  11.3 °C 30.2 in /  1022.6 hPa WNW 8 mph /  12.9 km/h 17 mph /  27.4 km/h 89 % 0 in /  0.0 mm 0 W/m2
07:10 55.6 °F /  13.1 °C 52.9 °F /  11.6 °C 30.2 in /  1022.6 hPa WNW 12 mph /  19.3 km/h 15 mph /  24.1 km/h 91 % 0 in /  0.0 mm 0 W/m2
07:15 55.6 °F /  13.1 °C 52.9 °F /  11.6 °C 30.2 in /  1022.6 hPa NW 10 mph /  16.1 km/h 19 mph /  30.6 km/h 91 % 0 in /  0.0 mm 0 W/m2
07:20 55.4 °F /  13.0 °C 52.9 °F /  11.6 °C 30.2 in /  1022.6 hPa WNW 8 mph /  12.9 km/h 19 mph /  30.6 km/h 91 % 0 in /  0.0 mm 0 W/m2
07:25 55.4 °F /  13.0 °C 52.9 °F /  11.6 °C 30.2 in /  1022.6 hPa West 6 mph /  9.7 km/h 16 mph /  25.7 km/h 91 % 0 in /  0.0 mm 0 W/m2
07:30 55.2 °F /  12.9 °C 52.7 °F /  11.5 °C 30.2 in /  1022.2 hPa NW 5 mph /  8.0 km/h 13 mph /  20.9 km/h 91 % 0 in /  0.0 mm 0 W/m2
07:35 55.4 °F /  13.0 °C 52.9 °F /  11.6 °C 30.2 in /  1022.2 hPa West 6 mph /  9.7 km/h 12 mph /  19.3 km/h 91 % 0 in /  0.0 mm 0 W/m2
07:40 55.4 °F /  13.0 °C 52.9 °F /  11.6 °C 30.2 in /  1022.2 hPa WNW 7 mph /  11.3 km/h 12 mph /  19.3 km/h 91 % 0 in /  0.0 mm 0 W/m2
07:45 55.6 °F /  13.1 °C 52.7 °F /  11.5 °C 30.2 in /  1022.2 hPa WNW 10 mph /  16.1 km/h 18 mph /  29.0 km/h 90 % 0 in /  0.0 mm 0 W/m2
07:50 55.8 °F /  13.2 °C 52.9 °F /  11.6 °C 30.2 in /  1022.2 hPa WNW 8 mph /  12.9 km/h 19 mph /  30.6 km/h 90 % 0 in /  0.0 mm 0 W/m2
08:00 55.9 °F /  13.3 °C 53.1 °F /  11.7 °C 30.2 in /  1022.2 hPa West 13 mph /  20.9 km/h 19 mph /  30.6 km/h 90 % 0 in /  0.0 mm 0 W/m2
08:05 56.1 °F /  13.4 °C 53.2 °F /  11.8 °C 30.2 in /  1022.2 hPa NW 9 mph /  14.5 km/h 19 mph /  30.6 km/h 90 % 0 in /  0.0 mm 0 W/m2
08:10 56.1 °F /  13.4 °C 53.6 °F /  12.0 °C 30.2 in /  1022.2 hPa WNW 8 mph /  12.9 km/h 20 mph /  32.2 km/h 91 % 0 in /  0.0 mm 0 W/m2
08:20 55.8 °F /  13.2 °C 53.6 °F /  12.0 °C 30.2 in /  1022.2 hPa NW 7 mph /  11.3 km/h 19 mph /  30.6 km/h 92 % 0 in /  0.0 mm 0 W/m2
08:25 55.6 °F /  13.1 °C 53.2 °F /  11.8 °C 30.2 in /  1021.9 hPa West 8 mph /  12.9 km/h 20 mph /  32.2 km/h 92 % 0 in /  0.0 mm 11 W/m2
08:30 55.6 °F /  13.1 °C 53.2 °F /  11.8 °C 30.2 in /  1021.9 hPa WNW 9 mph /  14.5 km/h 20 mph /  32.2 km/h 92 % 0 in /  0.0 mm 18 W/m2
08:35 55.6 °F /  13.1 °C 53.2 °F /  11.8 °C 30.2 in /  1021.9 hPa West 6 mph /  9.7 km/h 18 mph /  29.0 km/h 92 % 0 in /  0.0 mm 19 W/m2
08:40 55.6 °F /  13.1 °C 53.2 °F /  11.8 °C 30.2 in /  1021.9 hPa WNW 13 mph /  20.9 km/h 13 mph /  20.9 km/h 92 % 0 in /  0.0 mm 16 W/m2
08:45 55.6 °F /  13.1 °C 53.1 °F /  11.7 °C 30.2 in /  1021.9 hPa WNW 7 mph /  11.3 km/h 13 mph /  20.9 km/h 91 % 0 in /  0.0 mm 16 W/m2
08:50 55.6 °F /  13.1 °C 53.1 °F /  11.7 °C 30.2 in /  1022.2 hPa WNW 6 mph /  9.7 km/h 14 mph /  22.5 km/h 91 % 0 in /  0.0 mm 21 W/m2
08:55 55.8 °F /  13.2 °C 52.9 °F /  11.6 °C 30.2 in /  1022.2 hPa West 4 mph /  6.4 km/h 14 mph /  22.5 km/h 90 % 0 in /  0.0 mm 21 W/m2
09:00 55.8 °F /  13.2 °C 52.9 °F /  11.6 °C 30.2 in /  1022.2 hPa WNW 7 mph /  11.3 km/h 16 mph /  25.7 km/h 90 % 0 in /  0.0 mm 18 W/m2
09:05 55.9 °F /  13.3 °C 52.9 °F /  11.6 °C 30.2 in /  1021.9 hPa NW 5 mph /  8.0 km/h 16 mph /  25.7 km/h 89 % 0 in /  0.0 mm 16 W/m2
09:10 56.1 °F /  13.4 °C 52.9 °F /  11.6 °C 30.2 in /  1021.9 hPa WNW 6 mph /  9.7 km/h 14 mph /  22.5 km/h 89 % 0 in /  0.0 mm 23 W/m2
09:15 56.1 °F /  13.4 °C 53.2 °F /  11.8 °C 30.2 in /  1021.9 hPa WNW 6 mph /  9.7 km/h 15 mph /  24.1 km/h 90 % 0 in /  0.0 mm 14 W/m2
09:20 56.1 °F /  13.4 °C 53.2 °F /  11.8 °C 30.2 in /  1021.9 hPa West 8 mph /  12.9 km/h 15 mph /  24.1 km/h 90 % 0 in /  0.0 mm 14 W/m2
09:25 55.9 °F /  13.3 °C 53.4 °F /  11.9 °C 30.2 in /  1021.9 hPa WNW 11 mph /  17.7 km/h 15 mph /  24.1 km/h 91 % 0 in /  0.0 mm 14 W/m2
09:30 55.8 °F /  13.2 °C 53.4 °F /  11.9 °C 30.2 in /  1021.9 hPa West 5 mph /  8.0 km/h 20 mph /  32.2 km/h 92 % 0 in /  0.0 mm 28 W/m2
09:35 55.6 °F /  13.1 °C 53.6 °F /  12.0 °C 30.2 in /  1021.9 hPa WNW 5 mph /  8.0 km/h 20 mph /  32.2 km/h 93 % 0 in /  0.0 mm 84 W/m2
09:40 55.8 °F /  13.2 °C 53.8 °F /  12.1 °C 30.2 in /  1021.9 hPa NW 4 mph /  6.4 km/h 14 mph /  22.5 km/h 93 % 0 in /  0.0 mm 56 W/m2
09:45 55.9 °F /  13.3 °C 54 °F /  12.2 °C 30.2 in /  1021.9 hPa West 12 mph /  19.3 km/h 20 mph /  32.2 km/h 93 % 0 in /  0.0 mm 32 W/m2
09:50 55.9 °F /  13.3 °C 54 °F /  12.2 °C 30.2 in /  1021.6 hPa NW 10 mph /  16.1 km/h 20 mph /  32.2 km/h 93 % 0 in /  0.0 mm 65 W/m2
09:55 55.9 °F /  13.3 °C 54 °F /  12.2 °C 30.2 in /  1021.6 hPa NW 7 mph /  11.3 km/h 20 mph /  32.2 km/h 93 % 0 in /  0.0 mm 58 W/m2
10:00 56.1 °F /  13.4 °C 54.1 °F /  12.3 °C 30.2 in /  1021.9 hPa SW 7 mph /  11.3 km/h 17 mph /  27.4 km/h 93 % 0 in /  0.0 mm 70 W/m2
10:05 56.1 °F /  13.4 °C 54.1 °F /  12.3 °C 30.2 in /  1021.6 hPa West 7 mph /  11.3 km/h 16 mph /  25.7 km/h 93 % 0 in /  0.0 mm 53 W/m2
10:10 56.5 °F /  13.6 °C 54.3 °F /  12.4 °C 30.2 in /  1021.6 hPa West 15 mph /  24.1 km/h 15 mph /  24.1 km/h 93 % 0 in /  0.0 mm 53 W/m2
10:15 56.5 °F /  13.6 °C 54.1 °F /  12.3 °C 30.2 in /  1021.6 hPa West 9 mph /  14.5 km/h 16 mph /  25.7 km/h 92 % 0 in /  0.0 mm 19 W/m2
10:20 56.5 °F /  13.6 °C 54.1 °F /  12.3 °C 30.2 in /  1021.6 hPa WNW 7 mph /  11.3 km/h 16 mph /  25.7 km/h 92 % 0 in /  0.0 mm 23 W/m2
10:25 56.5 °F /  13.6 °C 54.1 °F /  12.3 °C 30.2 in /  1021.6 hPa West 10 mph /  16.1 km/h 16 mph /  25.7 km/h 92 % 0 in /  0.0 mm 30 W/m2
10:30 56.5 °F /  13.6 °C 54.1 °F /  12.3 °C 30.2 in /  1021.6 hPa WNW 8 mph /  12.9 km/h 18 mph /  29.0 km/h 92 % 0 in /  0.0 mm 30 W/m2
10:35 56.5 °F /  13.6 °C 54.1 °F /  12.3 °C 30.2 in /  1021.6 hPa NW 10 mph /  16.1 km/h 18 mph /  29.0 km/h 92 % 0 in /  0.0 mm 44 W/m2
10:40 56.7 °F /  13.7 °C 54.7 °F /  12.6 °C 30.2 in /  1021.6 hPa West 17 mph /  27.4 km/h 20 mph /  32.2 km/h 93 % 0 in /  0.0 mm 28 W/m2
10:45 56.7 °F /  13.7 °C 54.7 °F /  12.6 °C 30.2 in /  1021.6 hPa NW 7 mph /  11.3 km/h 20 mph /  32.2 km/h 93 % 0 in /  0.0 mm 42 W/m2
10:50 56.7 °F /  13.7 °C 54.7 °F /  12.6 °C 30.2 in /  1021.6 hPa West 15 mph /  24.1 km/h 19 mph /  30.6 km/h 93 % 0 in /  0.0 mm 49 W/m2
10:55 56.7 °F /  13.7 °C 54.7 °F /  12.6 °C 30.2 in /  1021.2 hPa West 14 mph /  22.5 km/h 21 mph /  33.8 km/h 93 % 0 in /  0.0 mm 67 W/m2
11:00 56.8 °F /  13.8 °C 54.9 °F /  12.7 °C 30.2 in /  1021.2 hPa WNW 8 mph /  12.9 km/h 21 mph /  33.8 km/h 93 % 0 in /  0.0 mm 63 W/m2
11:05 56.8 °F /  13.8 °C 54.9 °F /  12.7 °C 30.2 in /  1021.2 hPa WNW 13 mph /  20.9 km/h 19 mph /  30.6 km/h 93 % 0 in /  0.0 mm 69 W/m2
11:10 56.8 °F /  13.8 °C 54.9 °F /  12.7 °C 30.2 in /  1021.2 hPa NW 5 mph /  8.0 km/h 19 mph /  30.6 km/h 93 % 0 in /  0.0 mm 88 W/m2
11:15 56.8 °F /  13.8 °C 54.9 °F /  12.7 °C 30.2 in /  1021.2 hPa West 5 mph /  8.0 km/h 20 mph /  32.2 km/h 93 % 0 in /  0.0 mm 113 W/m2
11:20 57 °F /  13.9 °C 55 °F /  12.8 °C 30.2 in /  1021.2 hPa WNW 8 mph /  12.9 km/h 20 mph /  32.2 km/h 93 % 0 in /  0.0 mm 74 W/m2
11:25 57 °F /  13.9 °C 55 °F /  12.8 °C 30.2 in /  1021.2 hPa NW 4 mph /  6.4 km/h 17 mph /  27.4 km/h 93 % 0 in /  0.0 mm 40 W/m2
11:30 57 °F /  13.9 °C 55 °F /  12.8 °C 30.2 in /  1021.2 hPa WNW 13 mph /  20.9 km/h 20 mph /  32.2 km/h 93 % 0 in /  0.0 mm 53 W/m2
11:35 57.2 °F /  14.0 °C 55.2 °F /  12.9 °C 30.2 in /  1021.2 hPa West 12 mph /  19.3 km/h 20 mph /  32.2 km/h 93 % 0 in /  0.0 mm 74 W/m2
11:40 57.4 °F /  14.1 °C 55.2 °F /  12.9 °C 30.2 in /  1021.2 hPa WSW 8 mph /  12.9 km/h 20 mph /  32.2 km/h 93 % 0 in /  0.0 mm 84 W/m2
11:45 57.4 °F /  14.1 °C 55.4 °F /  13.0 °C 30.2 in /  1020.9 hPa West 6 mph /  9.7 km/h 20 mph /  32.2 km/h 93 % 0 in /  0.0 mm 56 W/m2
11:50 57.4 °F /  14.1 °C 55.4 °F /  13.0 °C 30.2 in /  1020.9 hPa NW 13 mph /  20.9 km/h 16 mph /  25.7 km/h 93 % 0 in /  0.0 mm 70 W/m2
11:55 57.6 °F /  14.2 °C 55.6 °F /  13.1 °C 30.2 in /  1020.9 hPa NW 10 mph /  16.1 km/h 17 mph /  27.4 km/h 93 % 0 in /  0.0 mm 54 W/m2
12:00 57.6 °F /  14.2 °C 55.2 °F /  12.9 °C 30.2 in /  1020.9 hPa WNW 11 mph /  17.7 km/h 22 mph /  35.4 km/h 92 % 0 in /  0.0 mm 56 W/m2
12:05 57.6 °F /  14.2 °C 55.2 °F /  12.9 °C 30.2 in /  1020.9 hPa WNW 7 mph /  11.3 km/h 22 mph /  35.4 km/h 92 % 0 in /  0.0 mm 123 W/m2
12:10 57.7 °F /  14.3 °C 55.4 °F /  13.0 °C 30.2 in /  1020.9 hPa West 11 mph /  17.7 km/h 21 mph /  33.8 km/h 92 % 0 in /  0.0 mm 72 W/m2
12:15 57.7 °F /  14.3 °C 55.6 °F /  13.1 °C 30.1 in /  1020.5 hPa NW 8 mph /  12.9 km/h 20 mph /  32.2 km/h 92 % 0 in /  0.0 mm 123 W/m2
12:25 58.3 °F /  14.6 °C 55.9 °F /  13.3 °C 30.1 in /  1020.5 hPa WNW 13 mph /  20.9 km/h 22 mph /  35.4 km/h 92 % 0 in /  0.0 mm 153 W/m2
12:30 58.3 °F /  14.6 °C 55.9 °F /  13.3 °C 30.1 in /  1020.5 hPa WNW 10 mph /  16.1 km/h 25 mph /  40.2 km/h 92 % 0 in /  0.0 mm 134 W/m2
12:35 58.1 °F /  14.5 °C 55.4 °F /  13.0 °C 30.1 in /  1020.5 hPa WNW 5 mph /  8.0 km/h 25 mph /  40.2 km/h 91 % 0 in /  0.0 mm 148 W/m2
12:40 58.1 °F /  14.5 °C 55.4 °F /  13.0 °C 30.1 in /  1020.5 hPa WNW 7 mph /  11.3 km/h 21 mph /  33.8 km/h 91 % 0 in /  0.0 mm 137 W/m2
12:45 58.3 °F /  14.6 °C 55.2 °F /  12.9 °C 30.1 in /  1020.5 hPa WNW 14 mph /  22.5 km/h 20 mph /  32.2 km/h 90 % 0 in /  0.0 mm 146 W/m2
12:50 58.3 °F /  14.6 °C 55.4 °F /  13.0 °C 30.1 in /  1020.2 hPa WNW 12 mph /  19.3 km/h 20 mph /  32.2 km/h 90 % 0 in /  0.0 mm 128 W/m2
12:55 58.3 °F /  14.6 °C 55.4 °F /  13.0 °C 30.1 in /  1020.2 hPa WNW 8 mph /  12.9 km/h 28 mph /  45.1 km/h 90 % 0 in /  0.0 mm 121 W/m2
13:00 58.5 °F /  14.7 °C 55.6 °F /  13.1 °C 30.1 in /  1020.2 hPa NW 16 mph /  25.7 km/h 28 mph /  45.1 km/h 90 % 0 in /  0.0 mm 271 W/m2
13:05 58.8 °F /  14.9 °C 55.6 °F /  13.1 °C 30.1 in /  1020.2 hPa NW 15 mph /  24.1 km/h 24 mph /  38.6 km/h 89 % 0 in /  0.0 mm 183 W/m2
13:10 59 °F /  15.0 °C 55.8 °F /  13.2 °C 30.1 in /  1020.2 hPa WNW 9 mph /  14.5 km/h 24 mph /  38.6 km/h 89 % 0 in /  0.0 mm 209 W/m2
13:15 59 °F /  15.0 °C 55.4 °F /  13.0 °C 30.1 in /  1020.2 hPa WNW 11 mph /  17.7 km/h 29 mph /  46.7 km/h 88 % 0 in /  0.0 mm 155 W/m2
13:20 58.8 °F /  14.9 °C 55.6 °F /  13.1 °C 30.1 in /  1019.9 hPa West 8 mph /  12.9 km/h 29 mph /  46.7 km/h 89 % 0 in /  0.0 mm 102 W/m2
13:25 58.6 °F /  14.8 °C 55.4 °F /  13.0 °C 30.1 in /  1019.9 hPa West 8 mph /  12.9 km/h 23 mph /  37.0 km/h 89 % 0 in /  0.0 mm 116 W/m2
13:30 58.6 °F /  14.8 °C 55.4 °F /  13.0 °C 30.1 in /  1019.9 hPa WNW 14 mph /  22.5 km/h 22 mph /  35.4 km/h 89 % 0 in /  0.0 mm 135 W/m2
13:35 58.6 °F /  14.8 °C 55.4 °F /  13.0 °C 30.1 in /  1019.9 hPa WNW 8 mph /  12.9 km/h 22 mph /  35.4 km/h 89 % 0 in /  0.0 mm 116 W/m2
13:40 58.6 °F /  14.8 °C 55.4 °F /  13.0 °C 30.1 in /  1019.9 hPa NW 9 mph /  14.5 km/h 25 mph /  40.2 km/h 89 % 0 in /  0.0 mm 102 W/m2
13:45 58.5 °F /  14.7 °C 55.4 °F /  13.0 °C 30.1 in /  1019.9 hPa West 11 mph /  17.7 km/h 25 mph /  40.2 km/h 90 % 0 in /  0.0 mm 84 W/m2
13:50 58.3 °F /  14.6 °C 55.2 °F /  12.9 °C 30.1 in /  1019.9 hPa WNW 7 mph /  11.3 km/h 19 mph /  30.6 km/h 90 % 0 in /  0.0 mm 91 W/m2
13:55 58.3 °F /  14.6 °C 55.2 °F /  12.9 °C 30.1 in /  1019.5 hPa West 14 mph /  22.5 km/h 25 mph /  40.2 km/h 90 % 0 in /  0.0 mm 105 W/m2
14:00 58.1 °F /  14.5 °C 55.4 °F /  13.0 °C 30.1 in /  1019.5 hPa WNW 9 mph /  14.5 km/h 25 mph /  40.2 km/h 91 % 0 in /  0.0 mm 125 W/m2
14:05 58.3 °F /  14.6 °C 55.2 °F /  12.9 °C 30.1 in /  1019.5 hPa West 4 mph /  6.4 km/h 25 mph /  40.2 km/h 90 % 0 in /  0.0 mm 123 W/m2
14:10 58.1 °F /  14.5 °C 55.2 °F /  12.9 °C 30.1 in /  1019.5 hPa WNW 16 mph /  25.7 km/h 27 mph /  43.4 km/h 90 % 0 in /  0.0 mm 72 W/m2
14:15 57.9 °F /  14.4 °C 55 °F /  12.8 °C 30.1 in /  1019.5 hPa WNW 8 mph /  12.9 km/h 27 mph /  43.4 km/h 90 % 0 in /  0.0 mm 97 W/m2
14:20 57.9 °F /  14.4 °C 55 °F /  12.8 °C 30.1 in /  1019.5 hPa NW 13 mph /  20.9 km/h 24 mph /  38.6 km/h 90 % 0 in /  0.0 mm 97 W/m2
14:25 57.9 °F /  14.4 °C 55 °F /  12.8 °C 30.1 in /  1019.2 hPa NW 16 mph /  25.7 km/h 24 mph /  38.6 km/h 90 % 0 in /  0.0 mm 114 W/m2
14:30 57.9 °F /  14.4 °C 55 °F /  12.8 °C 30.1 in /  1019.5 hPa WNW 7 mph /  11.3 km/h 27 mph /  43.4 km/h 90 % 0 in /  0.0 mm 90 W/m2
14:35 57.9 °F /  14.4 °C 55 °F /  12.8 °C 30.1 in /  1019.2 hPa West 12 mph /  19.3 km/h 27 mph /  43.4 km/h 90 % 0 in /  0.0 mm 83 W/m2
14:40 57.7 °F /  14.3 °C 54.9 °F /  12.7 °C 30.1 in /  1019.2 hPa NW 7 mph /  11.3 km/h 25 mph /  40.2 km/h 90 % 0 in /  0.0 mm 74 W/m2
14:45 57.7 °F /  14.3 °C 54.9 °F /  12.7 °C 30.1 in /  1019.2 hPa WNW 11 mph /  17.7 km/h 25 mph /  40.2 km/h 90 % 0 in /  0.0 mm 88 W/m2
14:50 57.9 °F /  14.4 °C 55 °F /  12.8 °C 30.1 in /  1019.2 hPa NNW 9 mph /  14.5 km/h 25 mph /  40.2 km/h 90 % 0 in /  0.0 mm 118 W/m2
14:55 57.9 °F /  14.4 °C 55 °F /  12.8 °C 30.1 in /  1019.2 hPa West 9 mph /  14.5 km/h 20 mph /  32.2 km/h 90 % 0 in /  0.0 mm 72 W/m2
15:00 57.7 °F /  14.3 °C 54.9 °F /  12.7 °C 30.1 in /  1019.2 hPa NW 8 mph /  12.9 km/h 25 mph /  40.2 km/h 90 % 0 in /  0.0 mm 81 W/m2
15:05 57.7 °F /  14.3 °C 54.9 °F /  12.7 °C 30.1 in /  1019.2 hPa WNW 11 mph /  17.7 km/h 25 mph /  40.2 km/h 90 % 0 in /  0.0 mm 58 W/m2
15:10 57.7 °F /  14.3 °C 54.9 °F /  12.7 °C 30.1 in /  1019.2 hPa WNW 13 mph /  20.9 km/h 23 mph /  37.0 km/h 90 % 0 in /  0.0 mm 60 W/m2
15:15 57.7 °F /  14.3 °C 54.9 °F /  12.7 °C 30.1 in /  1018.8 hPa WNW 13 mph /  20.9 km/h 24 mph /  38.6 km/h 90 % 0 in /  0.0 mm 83 W/m2
15:20 57.7 °F /  14.3 °C 54.9 °F /  12.7 °C 30.1 in /  1019.2 hPa NW 7 mph /  11.3 km/h 24 mph /  38.6 km/h 90 % 0 in /  0.0 mm 116 W/m2
15:25 57.9 °F /  14.4 °C 55 °F /  12.8 °C 30.1 in /  1018.8 hPa WSW 8 mph /  12.9 km/h 21 mph /  33.8 km/h 90 % 0 in /  0.0 mm 139 W/m2
15:30 58.1 °F /  14.5 °C 55.2 °F /  12.9 °C 30.1 in /  1018.8 hPa SW 4 mph /  6.4 km/h 21 mph /  33.8 km/h 90 % 0 in /  0.0 mm 142 W/m2
15:35 58.1 °F /  14.5 °C 55.2 °F /  12.9 °C 30.1 in /  1018.8 hPa West 10 mph /  16.1 km/h 21 mph /  33.8 km/h 90 % 0 in /  0.0 mm 77 W/m2
15:40 57.9 °F /  14.4 °C 55 °F /  12.8 °C 30.1 in /  1018.8 hPa NNW 6 mph /  9.7 km/h 24 mph /  38.6 km/h 90 % 0 in /  0.0 mm 53 W/m2
15:45 57.7 °F /  14.3 °C 54.9 °F /  12.7 °C 30.1 in /  1019.2 hPa NW 11 mph /  17.7 km/h 24 mph /  38.6 km/h 90 % 0 in /  0.0 mm 33 W/m2
15:50 57.6 °F /  14.2 °C 54.5 °F /  12.5 °C 30.1 in /  1018.8 hPa WNW 6 mph /  9.7 km/h 21 mph /  33.8 km/h 90 % 0 in /  0.0 mm 30 W/m2
15:55 57.4 °F /  14.1 °C 54.5 °F /  12.5 °C 30.1 in /  1018.8 hPa WNW 10 mph /  16.1 km/h 21 mph /  33.8 km/h 90 % 0 in /  0.0 mm 28 W/m2
16:00 57.4 °F /  14.1 °C 54.7 °F /  12.6 °C 30.1 in /  1018.8 hPa NW 11 mph /  17.7 km/h 23 mph /  37.0 km/h 91 % 0 in /  0.0 mm 46 W/m2
16:05 57.4 °F /  14.1 °C 54.3 °F /  12.4 °C 30.1 in /  1018.8 hPa WNW 20 mph /  32.2 km/h 26 mph /  41.8 km/h 90 % 0 in /  0.0 mm 46 W/m2
16:10 57.4 °F /  14.1 °C 54.3 °F /  12.4 °C 30.1 in /  1018.8 hPa West 13 mph /  20.9 km/h 27 mph /  43.4 km/h 90 % 0 in /  0.0 mm 54 W/m2
16:15 57.4 °F /  14.1 °C 54.5 °F /  12.5 °C 30.1 in /  1018.8 hPa WNW 6 mph /  9.7 km/h 27 mph /  43.4 km/h 90 % 0 in /  0.0 mm 46 W/m2
16:20 57.4 °F /  14.1 °C 54.5 °F /  12.5 °C 30.1 in /  1018.8 hPa WNW 8 mph /  12.9 km/h 22 mph /  35.4 km/h 90 % 0 in /  0.0 mm 35 W/m2
16:25 57.2 °F /  14.0 °C 54.3 °F /  12.4 °C 30.1 in /  1018.8 hPa WNW 16 mph /  25.7 km/h 22 mph /  35.4 km/h 90 % 0 in /  0.0 mm 35 W/m2
16:30 57 °F /  13.9 °C 54.1 °F /  12.3 °C 30.1 in /  1018.8 hPa WNW 9 mph /  14.5 km/h 18 mph /  29.0 km/h 90 % 0 in /  0.0 mm 39 W/m2
16:35 56.8 °F /  13.8 °C 54.3 °F /  12.4 °C 30.1 in /  1018.8 hPa NNW 13 mph /  20.9 km/h 20 mph /  32.2 km/h 91 % 0 in /  0.0 mm 23 W/m2
16:40 56.8 °F /  13.8 °C 54.1 °F /  12.3 °C 30.1 in /  1019.2 hPa NW 17 mph /  27.4 km/h 21 mph /  33.8 km/h 91 % 0 in /  0.0 mm 26 W/m2
16:45 56.8 °F /  13.8 °C 54.1 °F /  12.3 °C 30.1 in /  1018.8 hPa West 10 mph /  16.1 km/h 23 mph /  37.0 km/h 91 % 0 in /  0.0 mm 25 W/m2
16:50 56.8 °F /  13.8 °C 54.1 °F /  12.3 °C 30.1 in /  1018.8 hPa WNW 9 mph /  14.5 km/h 23 mph /  37.0 km/h 91 % 0 in /  0.0 mm 25 W/m2
17:00 56.8 °F /  13.8 °C 54.1 °F /  12.3 °C 30.1 in /  1018.8 hPa NW 7 mph /  11.3 km/h 24 mph /  38.6 km/h 91 % 0 in /  0.0 mm 14 W/m2
17:05 56.8 °F /  13.8 °C 54.1 °F /  12.3 °C 30.1 in /  1019.2 hPa WNW 5 mph /  8.0 km/h 24 mph /  38.6 km/h 91 % 0 in /  0.0 mm 11 W/m2
17:10 56.8 °F /  13.8 °C 54.1 °F /  12.3 °C 30.1 in /  1018.8 hPa NNW 8 mph /  12.9 km/h 18 mph /  29.0 km/h 91 % 0 in /  0.0 mm 7 W/m2
17:15 56.8 °F /  13.8 °C 54.1 °F /  12.3 °C 30.1 in /  1019.2 hPa WNW 10 mph /  16.1 km/h 15 mph /  24.1 km/h 91 % 0 in /  0.0 mm 9 W/m2
17:20 56.7 °F /  13.7 °C 54 °F /  12.2 °C 30.1 in /  1019.2 hPa NW 11 mph /  17.7 km/h 17 mph /  27.4 km/h 91 % 0 in /  0.0 mm 7 W/m2
17:25 56.5 °F /  13.6 °C 54 °F /  12.2 °C 30.1 in /  1019.2 hPa WNW 14 mph /  22.5 km/h 19 mph /  30.6 km/h 91 % 0 in /  0.0 mm 5 W/m2
17:30 56.5 °F /  13.6 °C 53.6 °F /  12.0 °C 30.1 in /  1019.2 hPa WNW 6 mph /  9.7 km/h 20 mph /  32.2 km/h 90 % 0 in /  0.0 mm 5 W/m2
17:35 56.5 °F /  13.6 °C 53.6 °F /  12.0 °C 30.1 in /  1019.2 hPa NNW 10 mph /  16.1 km/h 21 mph /  33.8 km/h 90 % 0 in /  0.0 mm 0 W/m2
17:40 56.7 °F /  13.7 °C 53.4 °F /  11.9 °C 30.1 in /  1019.2 hPa WNW 8 mph /  12.9 km/h 21 mph /  33.8 km/h 89 % 0 in /  0.0 mm 0 W/m2
17:45 56.7 °F /  13.7 °C 53.4 °F /  11.9 °C 30.1 in /  1019.2 hPa NW 10 mph /  16.1 km/h 19 mph /  30.6 km/h 89 % 0 in /  0.0 mm 0 W/m2
17:50 56.5 °F /  13.6 °C 53.2 °F /  11.8 °C 30.1 in /  1019.2 hPa WNW 9 mph /  14.5 km/h 20 mph /  32.2 km/h 89 % 0 in /  0.0 mm 0 W/m2
17:55 56.7 °F /  13.7 °C 53.4 °F /  11.9 °C 30.1 in /  1019.2 hPa WNW 13 mph /  20.9 km/h 20 mph /  32.2 km/h 89 % 0 in /  0.0 mm 0 W/m2
18:00 56.7 °F /  13.7 °C 53.4 °F /  11.9 °C 30.1 in /  1019.2 hPa WNW 11 mph /  17.7 km/h 20 mph /  32.2 km/h 89 % 0 in /  0.0 mm 0 W/m2
18:05 56.5 °F /  13.6 °C 53.2 °F /  11.8 °C 30.1 in /  1019.2 hPa WNW 5 mph /  8.0 km/h 24 mph /  38.6 km/h 89 % 0 in /  0.0 mm 0 W/m2
18:10 56.5 °F /  13.6 °C 53.2 °F /  11.8 °C 30.1 in /  1019.2 hPa West 14 mph /  22.5 km/h 24 mph /  38.6 km/h 89 % 0 in /  0.0 mm 0 W/m2
18:15 56.7 °F /  13.7 °C 53.4 °F /  11.9 °C 30.1 in /  1019.2 hPa WNW 9 mph /  14.5 km/h 23 mph /  37.0 km/h 89 % 0 in /  0.0 mm 0 W/m2
18:20 56.5 °F /  13.6 °C 53.2 °F /  11.8 °C 30.1 in /  1019.2 hPa WNW 25 mph /  40.2 km/h 27 mph /  43.4 km/h 89 % 0 in /  0.0 mm 0 W/m2
18:25 56.3 °F /  13.5 °C 53.1 °F /  11.7 °C 30.1 in /  1019.2 hPa WNW 9 mph /  14.5 km/h 27 mph /  43.4 km/h 89 % 0 in /  0.0 mm 0 W/m2
18:30 56.3 °F /  13.5 °C 53.1 °F /  11.7 °C 30.1 in /  1019.2 hPa WNW 8 mph /  12.9 km/h 26 mph /  41.8 km/h 89 % 0 in /  0.0 mm 0 W/m2
18:35 56.5 °F /  13.6 °C 53.2 °F /  11.8 °C 30.1 in /  1019.2 hPa NW 9 mph /  14.5 km/h 22 mph /  35.4 km/h 89 % 0 in /  0.0 mm 0 W/m2
18:40 56.5 °F /  13.6 °C 53.4 °F /  11.9 °C 30.1 in /  1019.2 hPa NW 9 mph /  14.5 km/h 20 mph /  32.2 km/h 90 % 0 in /  0.0 mm 0 W/m2
18:45 56.5 °F /  13.6 °C 53.4 °F /  11.9 °C 30.1 in /  1019.2 hPa WNW 10 mph /  16.1 km/h 24 mph /  38.6 km/h 90 % 0 in /  0.0 mm 0 W/m2
18:50 56.5 °F /  13.6 °C 53.4 °F /  11.9 °C 30.1 in /  1019.5 hPa WNW 19 mph /  30.6 km/h 24 mph /  38.6 km/h 90 % 0 in /  0.0 mm 0 W/m2
18:55 56.5 °F /  13.6 °C 53.2 °F /  11.8 °C 30.1 in /  1019.2 hPa WNW 7 mph /  11.3 km/h 24 mph /  38.6 km/h 89 % 0 in /  0.0 mm 0 W/m2
19:00 56.5 °F /  13.6 °C 53.2 °F /  11.8 °C 30.1 in /  1019.5 hPa NW 10 mph /  16.1 km/h 23 mph /  37.0 km/h 89 % 0 in /  0.0 mm 0 W/m2
19:05 56.7 °F /  13.7 °C 53.4 °F /  11.9 °C 30.1 in /  1019.5 hPa WNW 12 mph /  19.3 km/h 19 mph /  30.6 km/h 89 % 0 in /  0.0 mm 0 W/m2
19:10 56.5 °F /  13.6 °C 53.2 °F /  11.8 °C 30.1 in /  1019.5 hPa WNW 7 mph /  11.3 km/h 19 mph /  30.6 km/h 89 % 0 in /  0.0 mm 0 W/m2
19:15 56.5 °F /  13.6 °C 53.2 °F /  11.8 °C 30.1 in /  1019.5 hPa NW 9 mph /  14.5 km/h 17 mph /  27.4 km/h 89 % 0 in /  0.0 mm 0 W/m2
19:20 56.5 °F /  13.6 °C 53.2 °F /  11.8 °C 30.1 in /  1019.5 hPa WNW 8 mph /  12.9 km/h 21 mph /  33.8 km/h 89 % 0 in /  0.0 mm 0 W/m2
19:25 56.5 °F /  13.6 °C 53.2 °F /  11.8 °C 30.1 in /  1019.5 hPa WNW 6 mph /  9.7 km/h 21 mph /  33.8 km/h 89 % 0 in /  0.0 mm 0 W/m2
19:35 56.1 °F /  13.4 °C 53.2 °F /  11.8 °C 30.1 in /  1019.5 hPa West 7 mph /  11.3 km/h 22 mph /  35.4 km/h 90 % 0 in /  0.0 mm 0 W/m2
19:45 55.9 °F /  13.3 °C 53.2 °F /  11.8 °C 30.1 in /  1019.5 hPa NW 4 mph /  6.4 km/h 17 mph /  27.4 km/h 91 % 0 in /  0.0 mm 0 W/m2
19:50 55.9 °F /  13.3 °C 53.2 °F /  11.8 °C 30.1 in /  1019.5 hPa NNW 6 mph /  9.7 km/h 15 mph /  24.1 km/h 91 % 0 in /  0.0 mm 0 W/m2
19:55 55.9 °F /  13.3 °C 53.2 °F /  11.8 °C 30.1 in /  1019.5 hPa WNW 9 mph /  14.5 km/h 15 mph /  24.1 km/h 91 % 0 in /  0.0 mm 0 W/m2
20:00 55.9 °F /  13.3 °C 53.2 °F /  11.8 °C 30.1 in /  1019.5 hPa NW 9 mph /  14.5 km/h 15 mph /  24.1 km/h 91 % 0 in /  0.0 mm 0 W/m2
20:10 55.9 °F /  13.3 °C 53.2 °F /  11.8 °C 30.1 in /  1019.2 hPa WNW 3 mph /  4.8 km/h 18 mph /  29.0 km/h 91 % 0 in /  0.0 mm 0 W/m2
20:15 55.9 °F /  13.3 °C 53.1 °F /  11.7 °C 30.1 in /  1019.2 hPa West 6 mph /  9.7 km/h 18 mph /  29.0 km/h 90 % 0 in /  0.0 mm 0 W/m2
20:20 56.1 °F /  13.4 °C 53.2 °F /  11.8 °C 30.1 in /  1019.2 hPa WNW 16 mph /  25.7 km/h 20 mph /  32.2 km/h 90 % 0 in /  0.0 mm 0 W/m2
20:25 56.1 °F /  13.4 °C 53.1 °F /  11.7 °C 30.1 in /  1019.2 hPa West 7 mph /  11.3 km/h 20 mph /  32.2 km/h 89 % 0 in /  0.0 mm 0 W/m2
20:30 56.1 °F /  13.4 °C 53.1 °F /  11.7 °C 30.1 in /  1019.2 hPa WNW 5 mph /  8.0 km/h 21 mph /  33.8 km/h 89 % 0 in /  0.0 mm 0 W/m2
20:35 56.3 °F /  13.5 °C 53.1 °F /  11.7 °C 30.1 in /  1019.5 hPa WNW 8 mph /  12.9 km/h 21 mph /  33.8 km/h 89 % 0 in /  0.0 mm 0 W/m2
20:40 56.1 °F /  13.4 °C 53.2 °F /  11.8 °C 30.1 in /  1019.5 hPa West 11 mph /  17.7 km/h 16 mph /  25.7 km/h 90 % 0 in /  0.0 mm 0 W/m2
20:45 55.9 °F /  13.3 °C 53.4 °F /  11.9 °C 30.1 in /  1019.5 hPa NW 5 mph /  8.0 km/h 15 mph /  24.1 km/h 91 % 0 in /  0.0 mm 0 W/m2
20:50 55.8 °F /  13.2 °C 53.2 °F /  11.8 °C 30.1 in /  1019.5 hPa NW 5 mph /  8.0 km/h 18 mph /  29.0 km/h 91 % 0 in /  0.0 mm 0 W/m2
20:55 55.8 °F /  13.2 °C 53.1 °F /  11.7 °C 30.1 in /  1019.5 hPa NW 8 mph /  12.9 km/h 18 mph /  29.0 km/h 91 % 0 in /  0.0 mm 0 W/m2
21:00 55.8 °F /  13.2 °C 53.2 °F /  11.8 °C 30.1 in /  1019.5 hPa NNW 7 mph /  11.3 km/h 18 mph /  29.0 km/h 91 % 0 in /  0.0 mm 0 W/m2
21:05 55.8 °F /  13.2 °C 53.2 °F /  11.8 °C 30.1 in /  1019.5 hPa NW 8 mph /  12.9 km/h 14 mph /  22.5 km/h 91 % 0 in /  0.0 mm 0 W/m2
21:10 55.8 °F /  13.2 °C 53.4 °F /  11.9 °C 30.1 in /  1019.5 hPa NW 7 mph /  11.3 km/h 17 mph /  27.4 km/h 92 % 0 in /  0.0 mm 0 W/m2
21:15 55.8 °F /  13.2 °C 53.2 °F /  11.8 °C 30.1 in /  1019.5 hPa West 7 mph /  11.3 km/h 17 mph /  27.4 km/h 91 % 0 in /  0.0 mm 0 W/m2
21:20 55.9 °F /  13.3 °C 53.2 °F /  11.8 °C 30.1 in /  1019.2 hPa NNW 3 mph /  4.8 km/h 13 mph /  20.9 km/h 91 % 0 in /  0.0 mm 0 W/m2
21:25 55.9 °F /  13.3 °C 53.4 °F /  11.9 °C 30.1 in /  1019.2 hPa WNW 3 mph /  4.8 km/h 12 mph /  19.3 km/h 91 % 0 in /  0.0 mm 0 W/m2
21:30 56.1 °F /  13.4 °C 53.4 °F /  11.9 °C 30.1 in /  1019.5 hPa West 8 mph /  12.9 km/h 11 mph /  17.7 km/h 91 % 0 in /  0.0 mm 0 W/m2
21:35 56.1 °F /  13.4 °C 53.4 °F /  11.9 °C 30.1 in /  1019.2 hPa NW 6 mph /  9.7 km/h 13 mph /  20.9 km/h 91 % 0 in /  0.0 mm 0 W/m2
21:40 55.9 °F /  13.3 °C 53.4 °F /  11.9 °C 30.1 in /  1019.2 hPa WNW 2 mph /  3.2 km/h 13 mph /  20.9 km/h 91 % 0 in /  0.0 mm 0 W/m2
21:45 55.9 °F /  13.3 °C 53.2 °F /  11.8 °C 30.1 in /  1019.2 hPa West 5 mph /  8.0 km/h 11 mph /  17.7 km/h 91 % 0 in /  0.0 mm 0 W/m2
21:50 55.9 °F /  13.3 °C 53.6 °F /  12.0 °C 30.1 in /  1019.2 hPa WNW 4 mph /  6.4 km/h 10 mph /  16.1 km/h 92 % 0 in /  0.0 mm 0 W/m2
21:55 55.9 °F /  13.3 °C 53.8 °F /  12.1 °C 30.1 in /  1019.2 hPa NW 5 mph /  8.0 km/h 11 mph /  17.7 km/h 92 % 0 in /  0.0 mm 0 W/m2
22:00 56.1 °F /  13.4 °C 53.8 °F /  12.1 °C 30.1 in /  1019.2 hPa WNW 5 mph /  8.0 km/h 12 mph /  19.3 km/h 92 % 0 in /  0.0 mm 0 W/m2
22:05 56.1 °F /  13.4 °C 54 °F /  12.2 °C 30.1 in /  1019.2 hPa WNW 2 mph /  3.2 km/h 12 mph /  19.3 km/h 92 % 0 in /  0.0 mm 0 W/m2
22:10 56.1 °F /  13.4 °C 54 °F /  12.2 °C 30.1 in /  1019.2 hPa West 4 mph /  6.4 km/h 12 mph /  19.3 km/h 92 % 0 in /  0.0 mm 0 W/m2
22:20 56.1 °F /  13.4 °C 54 °F /  12.2 °C 30.1 in /  1019.2 hPa WNW 4 mph /  6.4 km/h 12 mph /  19.3 km/h 92 % 0 in /  0.0 mm 0 W/m2
22:25 56.3 °F /  13.5 °C 54 °F /  12.2 °C 30.1 in /  1018.8 hPa West 7 mph /  11.3 km/h 11 mph /  17.7 km/h 92 % 0 in /  0.0 mm 0 W/m2
22:30 56.1 °F /  13.4 °C 54 °F /  12.2 °C 30.1 in /  1018.8 hPa WNW 4 mph /  6.4 km/h 13 mph /  20.9 km/h 92 % 0 in /  0.0 mm 0 W/m2
22:35 56.1 °F /  13.4 °C 54 °F /  12.2 °C 30.1 in /  1018.8 hPa WSW 7 mph /  11.3 km/h 13 mph /  20.9 km/h 92 % 0 in /  0.0 mm 0 W/m2
22:40 56.3 °F /  13.5 °C 54 °F /  12.2 °C 30.1 in /  1018.8 hPa WNW 9 mph /  14.5 km/h 16 mph /  25.7 km/h 92 % 0 in /  0.0 mm 0 W/m2
22:45 56.3 °F /  13.5 °C 54 °F /  12.2 °C 30.1 in /  1018.8 hPa WNW 3 mph /  4.8 km/h 16 mph /  25.7 km/h 92 % 0 in /  0.0 mm 0 W/m2
22:50 56.3 °F /  13.5 °C 54 °F /  12.2 °C 30.1 in /  1019.2 hPa West 5 mph /  8.0 km/h 16 mph /  25.7 km/h 92 % 0 in /  0.0 mm 0 W/m2
22:55 56.5 °F /  13.6 °C 54.1 °F /  12.3 °C 30.1 in /  1018.8 hPa NW 6 mph /  9.7 km/h 16 mph /  25.7 km/h 92 % 0 in /  0.0 mm 0 W/m2
23:00 56.5 °F /  13.6 °C 54.1 °F /  12.3 °C 30.1 in /  1018.8 hPa WNW 10 mph /  16.1 km/h 13 mph /  20.9 km/h 92 % 0 in /  0.0 mm 0 W/m2
23:05 56.5 °F /  13.6 °C 54.1 °F /  12.3 °C 30.1 in /  1018.8 hPa WNW 6 mph /  9.7 km/h 13 mph /  20.9 km/h 92 % 0 in /  0.0 mm 0 W/m2
23:10 56.5 °F /  13.6 °C 54.1 °F /  12.3 °C 30.1 in /  1018.8 hPa WNW 8 mph /  12.9 km/h 14 mph /  22.5 km/h 92 % 0 in /  0.0 mm 0 W/m2
23:15 56.5 °F /  13.6 °C 54.1 °F /  12.3 °C 30.1 in /  1018.8 hPa WNW 5 mph /  8.0 km/h 15 mph /  24.1 km/h 92 % 0 in /  0.0 mm 0 W/m2
23:20 56.5 °F /  13.6 °C 54.1 °F /  12.3 °C 30.1 in /  1018.8 hPa West 7 mph /  11.3 km/h 15 mph /  24.1 km/h 92 % 0 in /  0.0 mm 0 W/m2
23:25 56.5 °F /  13.6 °C 54.1 °F /  12.3 °C 30.1 in /  1018.8 hPa NW 9 mph /  14.5 km/h 13 mph /  20.9 km/h 92 % 0 in /  0.0 mm 0 W/m2
23:30 56.5 °F /  13.6 °C 54.1 °F /  12.3 °C 30.1 in /  1018.8 hPa NW 9 mph /  14.5 km/h 19 mph /  30.6 km/h 92 % 0 in /  0.0 mm 0 W/m2
23:35 56.5 °F /  13.6 °C 54.1 °F /  12.3 °C 30.1 in /  1018.8 hPa West 6 mph /  9.7 km/h 19 mph /  30.6 km/h 92 % 0 in /  0.0 mm 0 W/m2
23:40 56.3 °F /  13.5 °C 54 °F /  12.2 °C 30.1 in /  1018.8 hPa NNW 16 mph /  25.7 km/h 16 mph /  25.7 km/h 92 % 0 in /  0.0 mm 0 W/m2
23:45 56.1 °F /  13.4 °C 54 °F /  12.2 °C 30.1 in /  1018.8 hPa NW 9 mph /  14.5 km/h 16 mph /  25.7 km/h 92 % 0 in /  0.0 mm 0 W/m2
23:50 56.1 °F /  13.4 °C 54 °F /  12.2 °C 30.1 in /  1018.8 hPa NW 5 mph /  8.0 km/h 16 mph /  25.7 km/h 92 % 0 in /  0.0 mm 0 W/m2
23:55 56.1 °F /  13.4 °C 54 °F /  12.2 °C 30.1 in /  1018.8 hPa NW 7 mph /  11.3 km/h 14 mph /  22.5 km/h 92 % 0 in /  0.0 mm 0 W/m2
Avec l'autorisation de Weather Underground - 1.75 mb